Time;durP1;ratioP1;P1;durP2;ratioP2;P2;SDS_P1;SDS_P2;PMS_P1;PMS_P2;Temp;Humidity;BMP_temperature;BMP_pressure;BME280_temperature;BME280_humidity;BME280_pressure;Samples;Min_cycle;Max_cycle;Signal;HPM_P1;HPM_P2
2023/08/05 00:01:13;;;;;;;8.20;5.40;;;;;;;19.90;75.67;98374.52;226028;1279;22527;-76
2023/08/05 00:06:16;;;;;;;9.90;5.10;;;;;;;19.90;75.68;98375.44;225906;1278;22633;-76
2023/08/05 00:11:19;;;;;;;6.70;4.70;;;;;;;19.89;75.74;98356.93;226086;1275;22540;-77
2023/08/05 00:16:21;;;;;;;8.70;5.40;;;;;;;19.88;75.72;98353.95;226005;1279;22718;-76
2023/08/05 00:21:23;;;;;;;7.20;4.90;;;;;;;19.86;75.73;98352.33;226074;1275;22533;-76
2023/08/05 00:26:25;;;;;;;9.40;5.40;;;;;;;19.82;75.78;98356.53;226097;1266;22544;-76
2023/08/05 00:31:30;;;;;;;10.20;5.70;;;;;;;19.77;75.82;98355.30;225924;1278;22526;-75
2023/08/05 00:36:33;;;;;;;7.30;5.20;;;;;;;19.72;75.83;98356.46;226125;1279;22532;-75
2023/08/05 00:41:35;;;;;;;8.70;4.90;;;;;;;19.68;76.01;98353.16;225868;1278;22529;-77
2023/08/05 00:46:38;;;;;;;9.00;5.60;;;;;;;19.62;76.21;98339.81;225975;1277;22625;-77
2023/08/05 00:52:00;;;;;;;9.50;5.40;;;;;;;19.55;76.68;98343.91;225992;1275;22548;-77
2023/08/05 00:57:10;;;;;;;10.10;5.70;;;;;;;19.46;77.24;98348.83;226050;1275;25371;-77
2023/08/05 01:02:26;;;;;;;10.50;5.60;;;;;;;19.37;77.69;98339.11;226071;1276;22550;-76
2023/08/05 01:07:30;;;;;;;9.30;6.10;;;;;;;19.27;78.35;98328.68;226029;1279;22969;-78
2023/08/05 01:12:34;;;;;;;10.40;5.90;;;;;;;19.13;78.89;98333.70;226087;1275;24250;-78
2023/08/05 01:17:37;;;;;;;9.40;6.00;;;;;;;18.98;79.38;98327.67;226112;1275;22535;-79
2023/08/05 01:22:42;;;;;;;9.60;6.30;;;;;;;18.87;79.97;98313.09;226042;1279;22544;-79
2023/08/05 01:28:02;;;;;;;12.80;7.20;;;;;;;18.72;80.21;98319.70;225993;1279;21782;-79
2023/08/05 01:33:10;;;;;;;9.90;6.60;;;;;;;18.58;80.82;98316.27;226094;1279;22798;-79
2023/08/05 01:38:12;;;;;;;10.30;6.30;;;;;;;18.47;81.01;98305.36;225939;1278;22580;-78
2023/08/05 01:43:15;;;;;;;10.30;6.60;;;;;;;18.37;81.38;98299.48;226018;1278;22534;-79
2023/08/05 01:48:20;;;;;;;12.10;7.10;;;;;;;18.29;81.84;98295.36;226160;1279;22687;-78
2023/08/05 01:53:53;;;;;;;11.90;7.30;;;;;;;18.23;82.14;98285.62;226129;1273;22537;-77
2023/08/05 01:58:56;;;;;;;11.70;7.00;;;;;;;18.19;82.33;98288.35;226165;1275;22536;-78
2023/08/05 02:03:58;;;;;;;11.00;6.60;;;;;;;18.14;82.59;98281.98;226156;1272;25034;-79
2023/08/05 02:09:03;;;;;;;10.00;7.40;;;;;;;18.10;82.90;98281.39;226183;1279;22538;-78
2023/08/05 02:14:06;;;;;;;9.60;7.20;;;;;;;18.06;83.01;98288.78;226132;1275;22541;-79
2023/08/05 02:19:11;;;;;;;10.60;7.30;;;;;;;18.02;83.37;98284.66;225955;1279;22531;-77
2023/08/05 02:24:14;;;;;;;8.50;7.00;;;;;;;17.99;83.50;98283.13;226056;1277;22731;-79
2023/08/05 02:29:20;;;;;;;12.30;6.90;;;;;;;17.96;83.62;98275.91;226047;1279;22541;-78
2023/08/05 02:34:22;;;;;;;11.20;6.90;;;;;;;17.92;83.90;98261.28;226048;1279;22803;-80
2023/08/05 02:39:25;;;;;;;8.10;6.40;;;;;;;17.88;83.98;98244.75;226130;1276;22542;-78
2023/08/05 02:44:28;;;;;;;11.30;7.80;;;;;;;17.83;84.10;98231.21;226100;1277;22553;-81
2023/08/05 02:49:35;;;;;;;13.50;7.80;;;;;;;17.80;84.42;98224.62;225887;1279;23094;-80
2023/08/05 02:54:37;;;;;;;11.50;7.60;;;;;;;17.80;84.61;98238.36;225976;1280;22647;-81
2023/08/05 02:59:54;;;;;;;12.60;8.70;;;;;;;17.80;84.63;98235.16;225989;1278;22545;-82
2023/08/05 03:05:09;;;;;;;11.80;9.00;;;;;;;17.77;84.62;98225.54;226093;1278;22549;-79
2023/08/05 03:10:32;;;;;;;14.20;9.20;;;;;;;17.73;84.90;98228.20;225860;1279;23009;-80
2023/08/05 03:15:50;;;;;;;14.30;9.40;;;;;;;17.71;85.09;98221.77;226012;1279;22547;-81
2023/08/05 03:21:05;;;;;;;12.80;9.40;;;;;;;17.74;85.28;98237.61;225930;1267;22567;-80
2023/08/05 03:26:18;;;;;;;16.20;9.90;;;;;;;17.74;85.17;98266.64;226158;1279;22548;-81
2023/08/05 03:31:23;;;;;;;14.20;9.30;;;;;;;17.74;85.30;98284.29;226094;1279;22560;-81
2023/08/05 03:36:48;;;;;;;14.70;9.60;;;;;;;17.76;85.27;98295.07;226149;1279;22531;-78
2023/08/05 03:41:56;;;;;;;13.40;9.50;;;;;;;17.79;85.33;98298.38;225886;1280;22542;-80
2023/08/05 03:46:59;;;;;;;14.70;9.10;;;;;;;17.83;85.42;98300.42;226149;1276;22521;-81
2023/08/05 03:52:20;;;;;;;10.80;9.10;;;;;;;17.87;85.43;98300.98;226097;1275;25046;-80
2023/08/05 03:57:26;;;;;;;13.50;9.80;;;;;;;17.89;85.70;98304.21;225934;1279;22532;-81
2023/08/05 04:03:12;;;;;;;14.20;10.60;;;;;;;17.90;85.58;98301.02;225974;1279;22536;-80
2023/08/05 04:08:17;;;;;;;11.70;9.60;;;;;;;17.91;85.63;98288.54;225981;1278;22545;-81
2023/08/05 04:13:45;;;;;;;11.60;9.30;;;;;;;17.92;85.83;98287.64;225903;1278;22497;-81
2023/08/05 04:19:11;;;;;;;11.70;9.70;;;;;;;17.92;85.72;98296.83;225908;1279;22536;-81
2023/08/05 04:24:29;;;;;;;12.20;10.10;;;;;;;17.93;85.99;98314.98;226037;1279;22541;-81
2023/08/05 04:29:43;;;;;;;12.60;10.40;;;;;;;17.95;86.36;98312.27;226108;1279;24246;-80
2023/08/05 04:35:07;;;;;;;11.50;10.10;;;;;;;17.99;86.31;98298.30;226030;1280;22530;-81
2023/08/05 04:40:26;;;;;;;14.00;10.50;;;;;;;18.04;86.38;98292.01;225081;1285;22538;-82
2023/08/05 04:45:28;;;;;;;15.20;10.20;;;;;;;18.09;86.27;98293.20;225053;1286;22587;-80
2023/08/05 04:50:57;;;;;;;13.20;10.20;;;;;;;18.11;86.07;98281.81;225069;1280;22554;-82
2023/08/05 04:56:20;;;;;;;12.00;10.00;;;;;;;18.10;86.10;98268.25;225371;1279;22553;-82
2023/08/05 05:01:34;;;;;;;9.90;8.10;;;;;;;18.12;86.54;98256.52;226185;1279;22570;-83
2023/08/05 05:07:26;;;;;;;13.20;8.70;;;;;;;18.13;86.39;98239.39;225925;1278;22547;-81
2023/08/05 05:12:37;;;;;;;12.00;7.60;;;;;;;18.11;86.40;98218.56;225895;1280;25296;-82
2023/08/05 05:17:50;;;;;;;12.10;7.50;;;;;;;18.04;86.24;98215.80;226087;1280;22865;-84
2023/08/05 05:22:56;;;;;;;9.10;6.20;;;;;;;17.97;86.50;98214.30;225925;1279;22552;-83
2023/08/05 05:28:01;;;;;;;8.30;4.80;;;;;;;17.93;86.49;98224.26;226003;1278;22595;-80
2023/08/05 05:33:47;;;;;;;6.40;4.80;;;;;;;17.93;86.31;98211.75;225934;1280;22553;-82
2023/08/05 05:39:05;;;;;;;5.80;4.70;;;;;;;17.92;86.32;98238.46;226191;1279;22520;-83
2023/08/05 05:44:52;;;;;;;7.50;5.10;;;;;;;17.97;86.35;98264.02;225988;1279;22548;-82
2023/08/05 05:50:54;;;;;;;5.40;3.70;;;;;;;18.00;85.98;98262.65;226176;1279;22551;-82
2023/08/05 05:55:59;;;;;;;5.40;4.20;;;;;;;18.03;85.90;98250.17;226124;1279;22568;-82
2023/08/05 06:01:14;;;;;;;4.90;3.10;;;;;;;18.06;85.79;98234.98;225963;1279;22552;-83
2023/08/05 06:06:44;;;;;;;4.40;3.30;;;;;;;18.10;85.27;98248.66;226075;1279;22575;-83
2023/08/05 06:12:35;;;;;;;4.80;3.10;;;;;;;18.14;85.28;98250.25;226230;1277;22541;-83
2023/08/05 06:17:59;;;;;;;13.10;9.60;;;;;;;18.18;85.07;98259.56;226155;1264;22533;-83
2023/08/05 06:23:06;;;;;;;3.30;2.50;;;;;;;18.22;84.84;98278.23;226055;1278;22536;-82
2023/08/05 06:28:12;;;;;;;4.70;2.80;;;;;;;18.19;84.67;98291.18;225932;1278;22533;-83
2023/08/05 06:33:14;;;;;;;4.90;2.60;;;;;;;18.16;84.80;98283.87;226045;1279;22545;-81
2023/08/05 06:38:17;;;;;;;4.50;2.50;;;;;;;18.12;84.78;98241.89;225974;1280;24276;-81
2023/08/05 06:43:23;;;;;;;4.60;2.70;;;;;;;18.12;84.77;98222.31;225782;1280;22602;-82
2023/08/05 06:48:28;;;;;;;5.90;2.80;;;;;;;18.13;84.93;98221.25;225984;1278;22549;-81
2023/08/05 06:53:30;;;;;;;4.20;3.00;;;;;;;18.12;85.02;98197.66;225868;1280;23257;-80
2023/08/05 06:58:33;;;;;;;3.90;3.40;;;;;;;18.06;85.01;98161.89;225873;1261;22565;-79
2023/08/05 07:03:44;;;;;;;5.00;4.00;;;;;;;18.06;85.12;98122.10;225611;1267;22928;-81
2023/08/05 07:08:56;;;;;;;4.50;3.00;;;;;;;18.08;85.06;98071.07;225639;1266;22529;-80
2023/08/05 07:14:25;;;;;;;5.40;4.00;;;;;;;18.24;85.28;98052.21;225626;1262;23003;-79
2023/08/05 07:19:27;;;;;;;5.40;3.90;;;;;;;18.44;85.19;98032.04;225698;1276;22536;-80
2023/08/05 07:24:30;;;;;;;4.40;3.20;;;;;;;18.65;84.94;98031.30;225729;1273;25154;-81
2023/08/05 07:29:32;;;;;;;4.30;2.70;;;;;;;18.89;84.72;98058.33;225753;1272;22532;-78
2023/08/05 07:34:39;;;;;;;4.30;2.30;;;;;;;19.15;84.17;98066.92;225689;1266;22564;-76
2023/08/05 07:39:46;;;;;;;4.30;2.50;;;;;;;19.44;83.62;98072.09;225540;1278;22523;-79
2023/08/05 07:44:51;;;;;;;2.80;2.00;;;;;;;19.67;82.98;98074.02;225705;1275;22573;-80
2023/08/05 07:50:52;;;;;;;3.40;2.00;;;;;;;19.98;82.17;98078.96;225787;1280;22581;-80
2023/08/05 07:55:37;;;;;;;3.70;2.40;;;;;;;20.38;81.88;98093.66;225676;1269;22547;-80
2023/08/05 08:00:44;;;;;;;3.90;2.20;;;;;;;20.67;80.88;98096.63;225722;1272;22529;-80
2023/08/05 08:05:55;;;;;;;4.10;2.20;;;;;;;20.82;80.35;98074.80;225719;1276;22561;-79
2023/08/05 08:10:58;;;;;;;2.00;1.80;;;;;;;20.96;79.61;98089.80;225858;1278;22547;-80
2023/08/05 08:16:03;;;;;;;3.80;2.00;;;;;;;20.83;78.71;98108.74;225971;1260;22541;-80
2023/08/05 08:21:06;;;;;;;2.40;1.50;;;;;;;20.62;78.59;98118.85;225862;1257;22541;-80
2023/08/05 08:26:10;;;;;;;1.60;1.50;;;;;;;20.46;78.53;98129.80;225699;1260;22543;-81
2023/08/05 08:31:15;;;;;;;3.00;2.00;;;;;;;20.35;78.45;98137.23;225593;1263;22533;-79
2023/08/05 08:36:32;;;;;;;2.70;2.00;;;;;;;20.24;78.40;98133.88;225838;1273;22658;-80
2023/08/05 08:41:44;;;;;;;1.50;1.40;;;;;;;20.16;78.48;98133.71;225836;1274;22549;-80
2023/08/05 08:46:52;;;;;;;1.80;1.50;;;;;;;20.14;78.44;98130.27;225644;1262;24269;-81
2023/08/05 08:52:14;;;;;;;2.40;1.80;;;;;;;20.07;78.16;98127.46;225763;1279;22544;-79
2023/08/05 08:57:19;;;;;;;1.90;1.50;;;;;;;20.02;78.26;98124.35;226006;1267;22542;-80
2023/08/05 09:02:26;;;;;;;5.20;1.70;;;;;;;19.97;78.32;98124.92;225804;1276;22539;-80
2023/08/05 09:07:29;;;;;;;2.00;1.60;;;;;;;19.92;78.16;98122.80;225897;1276;22571;-80
2023/08/05 09:12:37;;;;;;;2.10;1.70;;;;;;;19.89;78.22;98129.17;225676;1278;22537;-80
2023/08/05 09:17:56;;;;;;;3.40;1.90;;;;;;;19.88;78.32;98125.49;225690;1278;25244;-81
2023/08/05 09:23:02;;;;;;;2.50;2.10;;;;;;;19.84;78.39;98128.86;225933;1273;22555;-79
2023/08/05 09:28:10;;;;;;;2.60;1.90;;;;;;;19.77;78.42;98134.82;225776;1279;22537;-77
2023/08/05 09:33:45;;;;;;;;;;;;;;;;;;;;;
2023/08/05 09:39:13;;;;;;;2.30;2.10;;;;;;;19.78;78.90;98126.52;225746;1266;22532;-80
2023/08/05 09:44:18;;;;;;;3.40;2.40;;;;;;;19.82;78.81;98121.50;225748;1279;22566;-80
2023/08/05 09:49:33;;;;;;;3.00;2.70;;;;;;;19.88;78.95;98119.21;225745;1276;22540;-78
2023/08/05 09:54:36;;;;;;;5.00;3.90;;;;;;;19.97;78.99;98120.46;225902;1273;22594;-81
2023/08/05 09:59:41;;;;;;;4.30;3.90;;;;;;;20.03;78.90;98121.93;225807;1275;22559;-78
2023/08/05 10:04:47;;;;;;;4.10;3.20;;;;;;;20.08;79.00;98119.84;225689;1276;22591;-79
2023/08/05 10:09:53;;;;;;;3.80;3.30;;;;;;;20.17;78.94;98122.48;225868;1279;22576;-80
2023/08/05 10:15:07;;;;;;;4.30;3.90;;;;;;;20.22;78.62;98121.96;225425;1272;24264;-80
2023/08/05 10:20:12;;;;;;;5.20;3.90;;;;;;;20.26;78.71;98120.74;225476;1262;22542;-80
2023/08/05 10:25:43;;;;;;;3.60;3.20;;;;;;;20.37;78.55;98122.42;225676;1260;22560;-80
2023/08/05 10:30:45;;;;;;;4.10;3.70;;;;;;;20.53;78.75;98113.86;225553;1264;22979;-81
2023/08/05 10:35:49;;;;;;;4.80;2.90;;;;;;;20.62;78.24;98103.02;225362;1262;22547;-80
2023/08/05 10:40:52;;;;;;;4.20;2.60;;;;;;;20.66;78.07;98103.76;225698;1268;22597;-81
2023/08/05 10:46:28;;;;;;;3.60;2.90;;;;;;;20.67;77.79;98098.17;223671;1273;2737355;-79
2023/08/05 10:51:38;;;;;;;5.60;3.50;;;;;;;20.67;77.53;98091.73;225834;1274;22582;-82
2023/08/05 10:56:41;;;;;;;5.70;3.80;;;;;;;20.67;77.66;98080.52;225538;1266;22589;-79
2023/08/05 11:01:56;;;;;;;5.00;3.70;;;;;;;20.75;77.72;98067.89;225583;1279;22582;-81
2023/08/05 11:07:03;;;;;;;5.20;3.70;;;;;;;20.88;77.68;98059.27;225593;1274;22541;-81
2023/08/05 11:12:07;;;;;;;3.70;3.40;;;;;;;20.91;77.44;98057.93;226082;1276;22559;-80
2023/08/05 11:17:11;;;;;;;4.10;3.70;;;;;;;20.91;77.17;98055.36;225962;1279;22567;-80
2023/08/05 11:22:20;;;;;;;4.40;3.20;;;;;;;20.91;77.21;98051.06;226069;1277;22552;-79
2023/08/05 11:27:33;;;;;;;4.30;2.90;;;;;;;20.89;77.04;98038.38;226088;1279;22520;-81
2023/08/05 11:33:08;;;;;;;4.80;2.90;;;;;;;20.92;77.10;98028.60;226082;1279;22611;-80
2023/08/05 11:38:10;;;;;;;3.80;3.40;;;;;;;21.08;77.00;98028.00;226231;1279;22536;-80
2023/08/05 11:43:35;;;;;;;5.30;3.70;;;;;;;21.16;76.58;98024.80;225990;1280;22551;-79
2023/08/05 11:48:37;;;;;;;4.20;3.80;;;;;;;21.12;76.37;98017.77;226177;1276;22550;-81
2023/08/05 11:53:47;;;;;;;4.80;4.00;;;;;;;21.11;76.62;98007.94;226019;1279;22565;-80
2023/08/05 11:59:10;;;;;;;;;;;;;;;;;;;;;
2023/08/05 12:04:13;;;;;;;5.10;3.80;;;;;;;21.44;76.39;98014.38;226068;1279;25398;-80
2023/08/05 12:09:15;;;;;;;4.50;3.90;;;;;;;21.59;76.38;98005.59;226015;1276;22612;-79
2023/08/05 12:15:11;;;;;;;5.40;3.80;;;;;;;21.78;76.02;97996.54;226013;1279;22540;-80
2023/08/05 12:20:21;;;;;;;5.80;4.50;;;;;;;21.97;75.80;97984.67;226103;1279;22542;-79
2023/08/05 12:25:49;;;;;;;5.70;5.10;;;;;;;22.05;75.44;97979.70;226118;1279;22526;-79
2023/08/05 12:31:04;;;;;;;5.50;5.00;;;;;;;22.04;75.12;97992.94;226035;1273;22549;-77
2023/08/05 12:36:37;;;;;;;6.60;5.00;;;;;;;21.81;75.01;97990.13;226136;1280;25045;-79
2023/08/05 12:41:42;;;;;;;5.90;4.30;;;;;;;21.58;75.41;97988.83;226054;1277;22547;-78
2023/08/05 12:47:01;;;;;;;;;;;;;;;;;;;;;
2023/08/05 12:52:07;;;;;;;4.80;4.20;;;;;;;21.26;76.10;97980.34;225924;1279;22542;-80
2023/08/05 12:57:11;;;;;;;4.40;4.00;;;;;;;21.17;76.30;97979.56;225953;1277;25272;-78
2023/08/05 13:02:27;;;;;;;5.50;4.20;;;;;;;21.21;76.69;97969.40;226091;1280;22578;-78
2023/08/05 13:07:32;;;;;;;5.30;4.00;;;;;;;21.28;76.78;97977.91;226110;1279;22605;-79
2023/08/05 13:12:34;;;;;;;6.20;5.60;;;;;;;21.30;76.69;97979.36;226124;1280;22547;-79
2023/08/05 13:17:51;;;;;;;6.10;5.30;;;;;;;21.27;76.76;97980.01;225975;1273;22632;-78
2023/08/05 13:22:56;;;;;;;6.20;5.10;;;;;;;21.28;76.75;97984.63;226081;1276;22587;-78
2023/08/05 13:28:07;;;;;;;5.80;5.30;;;;;;;21.17;76.55;97989.67;226097;1276;22609;-78
2023/08/05 13:33:10;;;;;;;6.50;5.40;;;;;;;21.09;76.86;97986.09;226020;1270;24237;-77
2023/08/05 13:38:31;;;;;;;7.60;5.70;;;;;;;21.11;77.06;97974.84;225906;1280;22544;-79
2023/08/05 13:43:34;;;;;;;7.80;5.80;;;;;;;21.20;77.06;97977.89;226027;1277;24268;-81
2023/08/05 13:48:45;;;;;;;6.50;5.80;;;;;;;21.35;77.22;97975.84;226109;1276;22546;-79
2023/08/05 13:53:53;;;;;;;6.40;5.80;;;;;;;21.48;76.80;97976.69;226102;1276;22557;-80
2023/08/05 13:58:57;;;;;;;6.10;5.50;;;;;;;21.43;76.70;97962.25;226098;1277;22546;-80
2023/08/05 14:04:02;;;;;;;7.00;6.30;;;;;;;21.39;76.62;97958.34;226012;1275;22537;-80
2023/08/05 14:09:13;;;;;;;7.00;6.30;;;;;;;21.34;76.69;97950.80;226001;1276;22588;-79
2023/08/05 14:14:16;;;;;;;6.80;6.10;;;;;;;21.27;76.83;97946.48;226113;1273;22536;-79
2023/08/05 14:19:35;;;;;;;;;;;;;;;;;;;;;
2023/08/05 14:24:37;;;;;;;8.00;7.10;;;;;;;21.03;77.10;97965.86;226056;1279;22559;-79
2023/08/05 14:30:15;;;;;;;7.30;6.60;;;;;;;20.94;77.21;97954.67;226035;1277;22543;-79
2023/08/05 14:35:42;;;;;;;8.60;7.30;;;;;;;20.77;77.38;97949.32;226010;1279;23603;-79
2023/08/05 14:40:47;;;;;;;8.00;7.20;;;;;;;20.66;77.71;97934.42;225968;1279;22535;-79
2023/08/05 14:45:52;;;;;;;10.60;8.10;;;;;;;20.54;78.00;97942.35;225941;1276;23638;-79
2023/08/05 14:51:05;;;;;;;9.20;7.50;;;;;;;20.43;78.40;97941.63;226105;1276;24253;-79
2023/08/05 14:56:32;;;;;;;9.70;8.40;;;;;;;20.33;78.63;97943.40;226088;1279;23840;-78
2023/08/05 15:01:54;;;;;;;8.70;7.80;;;;;;;20.26;78.84;97935.84;225990;1273;22548;-79
2023/08/05 15:07:07;;;;;;;9.30;8.30;;;;;;;20.19;79.07;97937.77;225319;1284;22538;-78
2023/08/05 15:12:12;;;;;;;8.90;8.00;;;;;;;20.16;79.43;97935.22;225241;1281;22556;-79
2023/08/05 15:17:40;;;;;;;10.70;7.70;;;;;;;20.12;79.54;97934.41;225143;1285;22683;-79
2023/08/05 15:23:04;;;;;;;7.80;6.90;;;;;;;20.06;79.79;97926.35;225266;1284;24228;-78
2023/08/05 15:28:34;;;;;;;8.20;6.40;;;;;;;19.99;80.00;97921.29;225245;1265;22586;-78
2023/08/05 15:34:02;;;;;;;8.10;7.10;;;;;;;19.98;80.15;97932.39;225256;1281;22560;-78
2023/08/05 15:39:24;;;;;;;7.60;6.80;;;;;;;19.96;80.34;97931.04;225581;1281;22554;-78
2023/08/05 15:44:49;;;;;;;7.80;7.00;;;;;;;19.91;80.47;97926.48;225775;1281;22591;-78
2023/08/05 15:49:56;;;;;;;8.50;7.70;;;;;;;19.89;80.61;97919.40;225801;1278;22564;-78
2023/08/05 15:55:10;;;;;;;8.50;7.20;;;;;;;19.85;80.72;97920.49;225649;1281;22545;-78
2023/08/05 16:01:03;;;;;;;9.40;8.40;;;;;;;19.81;80.93;97931.31;225712;1281;25509;-79
2023/08/05 16:06:51;;;;;;;;;;;;;;;;;;;;;
2023/08/05 16:12:52;;;;;;;9.90;8.40;;;;;;;19.71;81.28;97935.77;225992;1279;22536;-77
2023/08/05 16:18:29;;;;;;;;;;;;;;;;;;;;;
2023/08/05 16:24:26;;;;;;;;;;;;;;;;;;;;;
2023/08/05 16:29:49;;;;;;;10.20;8.50;;;;;;;19.47;82.42;97914.82;226061;1279;22533;-77
2023/08/05 16:35:09;;;;;;;10.10;9.00;;;;;;;19.38;82.81;97917.58;225966;1276;25288;-78
2023/08/05 16:40:12;;;;;;;11.90;10.20;;;;;;;19.32;83.12;97913.60;225961;1276;25400;-79
2023/08/05 16:45:42;;;;;;;11.30;10.20;;;;;;;19.26;83.53;97913.02;226040;1277;22533;-78
2023/08/05 16:51:00;;;;;;;11.30;10.20;;;;;;;19.15;83.83;97922.79;226020;1276;22548;-78
2023/08/05 16:56:57;;;;;;;11.60;10.10;;;;;;;19.05;84.12;97925.60;225957;1279;24961;-77
2023/08/05 17:02:58;;;;;;;;;;;;;;;;;;;;;
2023/08/05 17:08:31;;;;;;;10.60;9.50;;;;;;;18.91;84.87;97923.73;225442;1282;22533;-78
2023/08/05 17:14:57;;;;;;;10.40;9.40;;;;;;;18.86;85.18;97926.75;225428;1282;22595;-79
2023/08/05 17:20:11;;;;;;;11.70;9.60;;;;;;;18.80;85.43;97920.55;225430;1283;24238;-78
2023/08/05 17:26:28;;;;;;;12.30;9.50;;;;;;;18.74;85.80;97924.52;225670;1279;22544;-78
2023/08/05 17:31:46;;;;;;;11.40;9.80;;;;;;;18.69;85.91;97915.84;226074;1279;22540;-79
2023/08/05 17:36:58;;;;;;;18.30;16.30;;;;;;;18.64;86.19;97902.33;226000;1273;25409;-79
2023/08/05 17:42:23;;;;;;;11.70;10.50;;;;;;;18.58;86.53;97896.71;225907;1279;22547;-79
2023/08/05 17:47:57;;;;;;;12.00;10.80;;;;;;;18.54;86.68;97895.08;226007;1275;23583;-78
2023/08/05 17:53:03;;;;;;;12.30;11.00;;;;;;;18.51;86.85;97883.67;225473;1279;22547;-79
2023/08/05 17:58:54;;;;;;;13.10;11.80;;;;;;;18.48;87.00;97887.94;225410;1281;22590;-78
2023/08/05 18:03:57;;;;;;;13.60;12.30;;;;;;;18.47;87.29;97895.90;225460;1275;22563;-78
2023/08/05 18:09:00;;;;;;;13.60;12.30;;;;;;;18.47;87.39;97896.60;225360;1282;23635;-78
2023/08/05 18:14:22;;;;;;;16.00;13.70;;;;;;;18.46;87.37;97897.88;225414;1280;22615;-79
2023/08/05 18:19:25;;;;;;;14.80;13.30;;;;;;;18.47;87.68;97881.30;225451;1283;22705;-79
2023/08/05 18:24:36;;;;;;;16.90;15.20;;;;;;;18.49;87.91;97870.39;225915;1279;24446;-76
2023/08/05 18:29:49;;;;;;;17.80;16.00;;;;;;;18.51;87.80;97875.44;226043;1276;22524;-78
2023/08/05 18:34:51;;;;;;;22.80;17.50;;;;;;;18.49;87.73;97884.36;225956;1276;22539;-79
2023/08/05 18:39:54;;;;;;;21.60;18.10;;;;;;;18.49;87.82;97881.78;225761;1279;22544;-79
2023/08/05 18:44:59;;;;;;;16.80;15.10;;;;;;;18.50;87.99;97881.59;226030;1272;22543;-79
2023/08/05 18:50:07;;;;;;;16.80;14.90;;;;;;;18.49;87.87;97859.91;226100;1276;22654;-79
2023/08/05 18:55:09;;;;;;;16.90;13.90;;;;;;;18.48;88.01;97845.57;226095;1275;24225;-79
2023/08/05 19:00:16;;;;;;;18.50;11.30;;;;;;;18.47;88.22;97840.64;225908;1278;22548;-78
2023/08/05 19:05:21;;;;;;;13.30;10.40;;;;;;;18.46;88.14;97828.27;225934;1279;22554;-78
2023/08/05 19:10:30;;;;;;;12.10;10.70;;;;;;;18.43;88.17;97793.05;226107;1260;22557;-79
2023/08/05 19:15:42;;;;;;;13.60;12.20;;;;;;;18.39;88.18;97776.09;225852;1279;25068;-77
2023/08/05 19:20:55;;;;;;;13.30;11.80;;;;;;;18.35;88.29;97794.21;226027;1279;24214;-79
2023/08/05 19:26:06;;;;;;;13.40;11.80;;;;;;;18.32;88.43;97808.21;226093;1276;22602;-79
2023/08/05 19:31:12;;;;;;;12.90;11.60;;;;;;;18.30;88.51;97801.14;226042;1273;25805;-78
2023/08/05 19:36:22;;;;;;;13.40;11.90;;;;;;;18.28;88.59;97816.96;225995;1279;23191;-80
2023/08/05 19:41:33;;;;;;;20.90;13.30;;;;;;;18.28;88.67;97813.11;226057;1278;22547;-76
2023/08/05 19:46:36;;;;;;;12.70;11.00;;;;;;;18.28;88.78;97813.54;226012;1279;22528;-77
2023/08/05 19:51:50;;;;;;;11.60;10.40;;;;;;;18.30;88.75;97829.01;226041;1276;25350;-78
2023/08/05 19:56:56;;;;;;;14.90;11.80;;;;;;;18.33;89.04;97848.60;226138;1275;22597;-78
2023/08/05 20:02:00;;;;;;;14.00;12.60;;;;;;;18.38;88.94;97849.64;226149;1272;22596;-80
2023/08/05 20:07:03;;;;;;;13.10;11.80;;;;;;;18.41;88.85;97858.14;225832;1278;23011;-79
2023/08/05 20:12:05;;;;;;;12.60;11.30;;;;;;;18.43;88.77;97864.69;225941;1278;22554;-79
2023/08/05 20:17:19;;;;;;;13.10;11.60;;;;;;;18.44;88.76;97869.02;225885;1279;22580;-77
2023/08/05 20:22:23;;;;;;;14.90;12.60;;;;;;;18.47;88.79;97857.06;225887;1279;22677;-78
2023/08/05 20:27:26;;;;;;;18.10;12.60;;;;;;;18.50;88.86;97844.45;225982;1275;23050;-78
2023/08/05 20:32:29;;;;;;;13.00;11.50;;;;;;;18.52;88.71;97837.02;226117;1269;24215;-79
2023/08/05 20:37:38;;;;;;;13.20;10.90;;;;;;;18.51;88.74;97835.09;225840;1279;25252;-79
2023/08/05 20:42:43;;;;;;;12.70;11.30;;;;;;;18.49;88.76;97816.41;225893;1275;22552;-78
2023/08/05 20:47:58;;;;;;;;;;;;;;;18.47;88.81;97789.77;226128;1278;22525;-80
2023/08/05 20:53:06;;;;;;;16.40;13.00;;;;;;;18.44;88.82;97768.98;226115;1265;22527;-77
2023/08/05 20:58:09;;;;;;;14.80;13.30;;;;;;;18.39;88.82;97747.30;225862;1279;22544;-78
2023/08/05 21:03:11;;;;;;;14.00;12.60;;;;;;;18.32;89.01;97758.04;226076;1274;22531;-79
2023/08/05 21:08:14;;;;;;;14.30;12.80;;;;;;;18.28;89.30;97755.51;226028;1277;22540;-79
2023/08/05 21:13:45;;;;;;;16.90;13.20;;;;;;;18.25;89.09;97755.67;226058;1262;24270;-79
2023/08/05 21:18:51;;;;;;;15.50;13.60;;;;;;;18.24;89.30;97744.81;226196;1279;22544;-79
2023/08/05 21:24:06;;;;;;;16.20;14.10;;;;;;;18.21;89.36;97728.92;225990;1271;22555;-79
2023/08/05 21:29:18;;;;;;;17.40;15.50;;;;;;;18.19;89.55;97717.84;225934;1279;22527;-78
2023/08/05 21:34:24;;;;;;;20.30;17.90;;;;;;;18.17;89.69;97695.00;226099;1280;22555;-79
2023/08/05 21:39:29;;;;;;;18.80;15.70;;;;;;;18.15;89.80;97666.22;225966;1279;22556;-78
2023/08/05 21:44:34;;;;;;;21.40;16.60;;;;;;;18.12;89.93;97622.41;226093;1277;23649;-77
2023/08/05 21:49:36;;;;;;;22.00;16.50;;;;;;;18.07;90.00;97611.95;225945;1278;22532;-79
2023/08/05 21:54:39;;;;;;;23.10;16.80;;;;;;;18.02;90.24;97626.15;226077;1279;22546;-79
2023/08/05 21:59:42;;;;;;;22.00;17.70;;;;;;;18.00;90.45;97636.93;225907;1279;22536;-78
2023/08/05 22:04:47;;;;;;;22.60;17.00;;;;;;;17.97;90.54;97618.16;226074;1275;22541;-79
2023/08/05 22:09:53;;;;;;;19.90;15.20;;;;;;;17.97;90.54;97612.92;226185;1278;22534;-78
2023/08/05 22:15:09;;;;;;;19.70;16.10;;;;;;;17.96;90.77;97590.73;225898;1279;22534;-78
2023/08/05 22:20:13;;;;;;;18.10;13.90;;;;;;;17.95;90.82;97565.95;226207;1275;25378;-79
2023/08/05 22:25:16;;;;;;;19.10;14.80;;;;;;;17.95;90.98;97538.05;226042;1275;22533;-78
2023/08/05 22:30:31;;;;;;;19.60;13.40;;;;;;;17.95;90.81;97530.68;225938;1279;25232;-79
2023/08/05 22:35:39;;;;;;;17.40;12.70;;;;;;;17.95;91.05;97539.55;226147;1272;22548;-79
2023/08/05 22:41:02;;;;;;;15.70;12.90;;;;;;;17.93;91.17;97536.77;226071;1279;22536;-79
2023/08/05 22:46:25;;;;;;;18.30;12.70;;;;;;;17.92;91.22;97532.86;221717;1266;5732060;-79
2023/08/05 22:51:28;;;;;;;15.30;12.30;;;;;;;17.92;91.20;97541.36;226218;1276;25887;-79
2023/08/05 22:56:31;;;;;;;18.90;11.90;;;;;;;17.91;91.29;97560.27;225963;1279;22537;-78
2023/08/05 23:01:49;;;;;;;13.30;10.90;;;;;;;17.92;91.25;97566.64;226109;1279;22541;-79
2023/08/05 23:06:54;;;;;;;13.60;10.80;;;;;;;17.90;91.35;97572.73;226060;1279;22505;-78
2023/08/05 23:11:59;;;;;;;15.50;11.10;;;;;;;17.90;91.47;97579.63;225993;1278;22536;-78
2023/08/05 23:17:01;;;;;;;13.60;10.80;;;;;;;17.89;91.66;97602.81;226125;1273;22704;-79
2023/08/05 23:22:18;;;;;;;14.50;11.40;;;;;;;17.89;91.66;97622.05;225965;1279;22544;-78
2023/08/05 23:27:39;;;;;;;12.30;10.30;;;;;;;17.90;91.81;97630.73;226062;1279;22565;-78
2023/08/05 23:32:46;;;;;;;16.40;11.20;;;;;;;17.94;92.01;97634.96;226153;1276;24228;-79
2023/08/05 23:38:02;;;;;;;13.40;10.80;;;;;;;17.96;91.86;97635.86;226054;1277;22559;-80
2023/08/05 23:43:08;;;;;;;12.40;9.40;;;;;;;17.98;92.16;97627.94;225979;1279;24250;-80
2023/08/05 23:48:11;;;;;;;16.20;12.10;;;;;;;18.00;92.09;97620.80;225923;1279;22607;-79
2023/08/05 23:53:15;;;;;;;14.50;11.00;;;;;;;18.01;92.19;97591.28;225903;1280;22533;-79
2023/08/05 23:58:17;;;;;;;16.10;12.00;;;;;;;18.00;92.22;97565.57;226193;1279;22677;-78
